createdAt,value
2019-03-13T00:01:42.124Z,99708.00
2019-03-13T00:04:10.953Z,99701.00
2019-03-13T00:06:39.692Z,99706.00
2019-03-13T00:09:11.142Z,99703.00
2019-03-13T00:11:40.441Z,99694.00
2019-03-13T00:14:09.434Z,99679.00
2019-03-13T00:16:38.098Z,99685.00
2019-03-13T00:19:06.863Z,99664.00
2019-03-13T00:21:35.750Z,99673.00
2019-03-13T00:24:04.258Z,99675.00
2019-03-13T00:26:32.551Z,99676.00
2019-03-13T00:29:01.336Z,99664.00
2019-03-13T00:31:29.825Z,99662.00
2019-03-13T00:33:58.421Z,99655.00
2019-03-13T00:36:26.934Z,99648.00
2019-03-13T00:38:55.326Z,99648.00
2019-03-13T00:41:23.990Z,99644.00
2019-03-13T00:43:52.379Z,99640.00
2019-03-13T00:46:21.067Z,99627.00
2019-03-13T00:48:49.494Z,99621.00
2019-03-13T00:51:18.145Z,99624.00
2019-03-13T00:53:46.567Z,99616.00
2019-03-13T00:56:15.512Z,99609.00
2019-03-13T00:58:43.949Z,99601.00
2019-03-13T01:01:37.481Z,99589.00
2019-03-13T01:04:14.287Z,99597.00
2019-03-13T01:06:46.237Z,99583.00
2019-03-13T01:09:14.937Z,99568.00
2019-03-13T01:11:43.745Z,99576.00
2019-03-13T01:14:12.696Z,99576.00
2019-03-13T01:16:41.312Z,99562.00
2019-03-13T01:19:09.987Z,99567.00
2019-03-13T01:21:39.598Z,99566.00
2019-03-13T01:24:08.030Z,99570.00
2019-03-13T01:26:42.937Z,99565.00
2019-03-13T01:29:11.518Z,99562.00
2019-03-13T01:31:58.125Z,99554.00
2019-03-13T01:34:46.269Z,99547.00
2019-03-13T01:37:14.842Z,99545.00
2019-03-13T01:39:43.461Z,99537.00
2019-03-13T01:42:11.820Z,99525.00
2019-03-13T01:44:40.919Z,99531.00
2019-03-13T01:47:09.480Z,99514.00
2019-03-13T01:49:38.096Z,99513.00
2019-03-13T01:52:06.547Z,99521.00
2019-03-13T01:54:35.210Z,99512.00
2019-03-13T01:57:03.891Z,99504.00
2019-03-13T01:59:32.277Z,99510.00
2019-03-13T02:02:01.863Z,99514.00
2019-03-13T02:04:30.293Z,99496.00
2019-03-13T02:06:58.645Z,99500.00
2019-03-13T02:09:27.348Z,99500.00
2019-03-13T02:11:56.020Z,99489.00
2019-03-13T02:14:24.394Z,99485.00
2019-03-13T02:16:52.725Z,99478.00
2019-03-13T02:19:21.167Z,99477.00
2019-03-13T02:21:49.879Z,99486.00
2019-03-13T02:24:18.287Z,99473.00
2019-03-13T02:26:46.864Z,99475.00
2019-03-13T02:29:15.586Z,99471.00
2019-03-13T02:31:43.964Z,99458.00
2019-03-13T02:34:12.663Z,99465.00
2019-03-13T02:36:41.072Z,99464.00
2019-03-13T02:39:09.576Z,99450.00
2019-03-13T02:41:38.461Z,99445.00
2019-03-13T02:44:06.787Z,99450.00
2019-03-13T02:46:35.521Z,99447.00
2019-03-13T02:49:03.808Z,99438.00
2019-03-13T02:51:32.212Z,99438.00
2019-03-13T02:54:02.430Z,99437.00
2019-03-13T02:56:30.872Z,99424.00
2019-03-13T02:58:59.237Z,99434.00
2019-03-13T03:01:41.743Z,99427.00
2019-03-13T03:04:11.323Z,99421.00
2019-03-13T03:06:40.063Z,99428.00
2019-03-13T03:09:09.220Z,99422.00
2019-03-13T03:11:37.708Z,99415.00
2019-03-13T03:14:06.098Z,99408.00
2019-03-13T03:16:34.760Z,99398.00
2019-03-13T03:19:03.549Z,99395.00
2019-03-13T03:21:32.061Z,99393.00
2019-03-13T03:24:01.661Z,99394.00
2019-03-13T03:26:30.389Z,99383.00
2019-03-13T03:29:00.190Z,99373.00
2019-03-13T03:31:29.048Z,99357.00
2019-03-13T03:34:02.661Z,99359.00
2019-03-13T03:36:31.521Z,99366.00
2019-03-13T03:39:02.731Z,99354.00
2019-03-13T03:41:31.371Z,99360.00
2019-03-13T03:43:59.817Z,99352.00
2019-03-13T03:46:28.201Z,99360.00
2019-03-13T03:48:56.538Z,99348.00
2019-03-13T03:51:25.193Z,99349.00
2019-03-13T03:53:53.604Z,99331.00
2019-03-13T03:56:22.253Z,99331.00
2019-03-13T03:58:51.051Z,99315.00
2019-03-13T04:01:19.440Z,99316.00
2019-03-13T04:03:47.757Z,99314.00
2019-03-13T04:06:16.400Z,99298.00
2019-03-13T04:08:45.076Z,99289.00
2019-03-13T04:11:13.467Z,99290.00
2019-03-13T04:13:44.616Z,99299.00
2019-03-13T04:16:11.780Z,99277.00
2019-03-13T04:18:40.217Z,99277.00
2019-03-13T04:21:08.576Z,99269.00
2019-03-13T04:23:37.033Z,99281.00
2019-03-13T04:26:05.448Z,99274.00
2019-03-13T04:28:34.058Z,99266.00
2019-03-13T04:31:02.502Z,99271.00
2019-03-13T04:33:31.150Z,99270.00
2019-03-13T04:35:59.498Z,99261.00
2019-03-13T04:38:27.862Z,99255.00
2019-03-13T04:40:56.217Z,99251.00
2019-03-13T04:43:24.927Z,99250.00
2019-03-13T04:45:53.192Z,99251.00
2019-03-13T04:48:21.720Z,99250.00
2019-03-13T04:50:50.132Z,99254.00
2019-03-13T04:53:18.432Z,99239.00
2019-03-13T04:55:46.795Z,99244.00
2019-03-13T04:58:15.188Z,99226.00
2019-03-13T05:00:43.694Z,99217.00
2019-03-13T05:03:11.978Z,99233.00
2019-03-13T05:06:23.085Z,99222.00
2019-03-13T05:09:07.129Z,99215.00
2019-03-13T05:11:35.443Z,99222.00
2019-03-13T05:14:03.871Z,99209.00
2019-03-13T05:16:32.248Z,99207.00
2019-03-13T05:19:01.479Z,99197.00
2019-03-13T05:21:29.884Z,99211.00
2019-03-13T05:23:58.291Z,99201.00
2019-03-13T05:26:26.595Z,99191.00
2019-03-13T05:28:55.071Z,99213.00
2019-03-13T05:31:23.310Z,99186.00
2019-03-13T05:33:51.815Z,99198.00
2019-03-13T05:36:20.485Z,99185.00
2019-03-13T05:38:48.897Z,99185.00
2019-03-13T05:41:17.344Z,99185.00
2019-03-13T05:43:45.580Z,99188.00
2019-03-13T05:46:14.027Z,99192.00
2019-03-13T05:48:42.424Z,99190.00
2019-03-13T05:51:10.745Z,99193.00
2019-03-13T05:53:39.172Z,99195.00
2019-03-13T05:56:07.737Z,99200.00
2019-03-13T05:58:36.199Z,99190.00
2019-03-13T06:01:04.901Z,99188.00
2019-03-13T06:03:33.234Z,99198.00
2019-03-13T06:06:01.647Z,99186.00
2019-03-13T06:08:30.035Z,99191.00
2019-03-13T06:10:58.482Z,99197.00
2019-03-13T06:13:27.449Z,99196.00
2019-03-13T06:15:55.773Z,99174.00
2019-03-13T06:18:24.244Z,99179.00
2019-03-13T06:20:53.169Z,99177.00
2019-03-13T06:23:22.103Z,99186.00
2019-03-13T06:25:50.627Z,99191.00
2019-03-13T06:28:18.888Z,99199.00
2019-03-13T06:30:47.602Z,99182.00
2019-03-13T06:33:16.255Z,99181.00
2019-03-13T06:35:45.007Z,99178.00
2019-03-13T06:38:13.317Z,99176.00
2019-03-13T06:40:41.709Z,99168.00
2019-03-13T06:43:10.679Z,99174.00
2019-03-13T06:45:39.081Z,99176.00
2019-03-13T06:48:07.841Z,99160.00
2019-03-13T06:50:36.477Z,99164.00
2019-03-13T06:53:05.247Z,99171.00
2019-03-13T06:55:33.550Z,99174.00
2019-03-13T06:58:02.227Z,99166.00
2019-03-13T07:00:56.083Z,99172.00
2019-03-13T07:03:42.724Z,99175.00
2019-03-13T07:06:23.285Z,99189.00
2019-03-13T07:09:09.560Z,99181.00
2019-03-13T07:11:57.757Z,99181.00
2019-03-13T07:14:34.519Z,99198.00
2019-03-13T07:17:28.742Z,99191.00
2019-03-13T07:20:11.024Z,99195.00
2019-03-13T07:23:02.353Z,99177.00
2019-03-13T07:25:50.215Z,99164.00
2019-03-13T07:28:52.465Z,99164.00
2019-03-13T07:31:38.903Z,99178.00
2019-03-13T07:34:45.110Z,99182.00
2019-03-13T07:37:33.597Z,99196.00
2019-03-13T07:40:19.887Z,99183.00
2019-03-13T07:43:10.522Z,99170.00
2019-03-13T07:45:49.126Z,99178.00
2019-03-13T07:48:40.081Z,99193.00
2019-03-13T07:51:40.065Z,99186.00
2019-03-13T07:54:31.058Z,99195.00
2019-03-13T07:57:17.165Z,99186.00
2019-03-13T08:00:08.039Z,99208.00
2019-03-13T08:02:46.381Z,99194.00
2019-03-13T08:05:37.466Z,99190.00
2019-03-13T08:08:13.721Z,99184.00
2019-03-13T08:10:55.928Z,99189.00
2019-03-13T08:13:43.772Z,99197.00
2019-03-13T08:16:30.837Z,99188.00
2019-03-13T08:19:27.975Z,99188.00
2019-03-13T08:22:11.517Z,99196.00
2019-03-13T08:24:52.667Z,99217.00
2019-03-13T08:27:31.066Z,99188.00
2019-03-13T08:30:20.587Z,99196.00
2019-03-13T08:33:04.660Z,99201.00
2019-03-13T08:35:50.899Z,99200.00
2019-03-13T08:38:37.943Z,99203.00
2019-03-13T08:41:14.767Z,99190.00
2019-03-13T08:44:20.768Z,99195.00
2019-03-13T08:46:59.025Z,99195.00
2019-03-13T08:49:45.545Z,99195.00
2019-03-13T08:52:20.693Z,99194.00
2019-03-13T08:55:07.781Z,99206.00
2019-03-13T08:57:58.589Z,99197.00
2019-03-13T09:00:37.391Z,99200.00
2019-03-13T09:03:25.760Z,99202.00
2019-03-13T09:06:19.719Z,99215.00
2019-03-13T09:09:10.978Z,99197.00
2019-03-13T09:11:56.824Z,99202.00
2019-03-13T09:14:51.077Z,99212.00
2019-03-13T09:17:27.882Z,99212.00
2019-03-13T09:20:10.575Z,99219.00
2019-03-13T09:22:47.741Z,99211.00
2019-03-13T09:25:45.024Z,99215.00
2019-03-13T09:28:35.646Z,99210.00
2019-03-13T09:31:26.823Z,99213.00
2019-03-13T09:34:17.296Z,99204.00
2019-03-13T09:37:02.131Z,99195.00
2019-03-13T09:39:49.019Z,99199.00
2019-03-13T09:42:42.880Z,99196.00
2019-03-13T09:45:29.561Z,99195.00
2019-03-13T09:48:17.568Z,99203.00
2019-03-13T09:50:54.794Z,99199.00
2019-03-13T09:53:45.184Z,99208.00
2019-03-13T09:56:26.431Z,99205.00
2019-03-13T09:59:12.947Z,99213.00
2019-03-13T10:01:59.629Z,99199.00
2019-03-13T10:04:50.555Z,99212.00
2019-03-13T10:07:23.640Z,99214.00
2019-03-13T10:10:17.753Z,99223.00
2019-03-13T10:13:06.020Z,99243.00
2019-03-13T10:15:40.964Z,99231.00
2019-03-13T10:18:24.720Z,99218.00
2019-03-13T10:21:21.876Z,99233.00
2019-03-13T10:23:55.609Z,99243.00
2019-03-13T10:26:42.717Z,99249.00
2019-03-13T10:29:18.440Z,99230.00
2019-03-13T10:31:55.457Z,99227.00
2019-03-13T10:34:46.266Z,99244.00
2019-03-13T10:37:33.865Z,99244.00
2019-03-13T10:40:27.804Z,99237.00
2019-03-13T10:43:18.687Z,99238.00
2019-03-13T10:46:02.069Z,99231.00
2019-03-13T10:48:45.235Z,99235.00
2019-03-13T10:51:36.650Z,99230.00
2019-03-13T10:54:36.974Z,99234.00
2019-03-13T10:57:24.809Z,99232.00
2019-03-13T11:00:24.697Z,99225.00
2019-03-13T11:03:19.007Z,99223.00
2019-03-13T11:06:00.343Z,99228.00
2019-03-13T11:08:40.103Z,99226.00
2019-03-13T11:11:26.559Z,99242.00
2019-03-13T11:14:18.837Z,99232.00
2019-03-13T11:16:56.525Z,99229.00
2019-03-13T11:19:46.475Z,99234.00
2019-03-13T11:22:24.448Z,99231.00
2019-03-13T11:25:13.633Z,99234.00
2019-03-13T11:28:13.824Z,99232.00
2019-03-13T11:31:06.522Z,99237.00
2019-03-13T11:33:51.408Z,99246.00
2019-03-13T11:36:38.207Z,99255.00
2019-03-13T11:39:29.920Z,99256.00
2019-03-13T11:42:11.561Z,99254.00
2019-03-13T11:44:58.628Z,99245.00
2019-03-13T11:48:04.379Z,99252.00
2019-03-13T11:51:07.606Z,99253.00
2019-03-13T11:53:53.704Z,99254.00
2019-03-13T11:56:49.185Z,99265.00
2019-03-13T11:59:37.627Z,99265.00
2019-03-13T12:02:24.658Z,99266.00
2019-03-13T12:05:02.892Z,99258.00
2019-03-13T12:07:59.505Z,99250.00
2019-03-13T12:10:42.757Z,99261.00
2019-03-13T12:13:33.644Z,99252.00
2019-03-13T12:16:24.179Z,99249.00
2019-03-13T12:19:15.287Z,99237.00
2019-03-13T12:21:54.805Z,99243.00
2019-03-13T12:24:51.579Z,99243.00
2019-03-13T12:27:43.002Z,99256.00
2019-03-13T12:30:22.978Z,99246.00
2019-03-13T12:33:23.262Z,99242.00
2019-03-13T12:36:11.429Z,99242.00
2019-03-13T12:38:59.607Z,99247.00
2019-03-13T12:41:47.924Z,99243.00
2019-03-13T12:44:41.900Z,99243.00
2019-03-13T12:47:33.204Z,99238.00
2019-03-13T12:50:07.491Z,99246.00
2019-03-13T12:53:04.377Z,99237.00
2019-03-13T12:56:04.974Z,99234.00
2019-03-13T12:58:55.546Z,99235.00
2019-03-13T13:01:36.685Z,99230.00
2019-03-13T13:04:28.329Z,99241.00
2019-03-13T13:07:19.583Z,99237.00
2019-03-13T13:10:19.736Z,99245.00
2019-03-13T13:13:06.361Z,99234.00
2019-03-13T13:16:00.955Z,99240.00
2019-03-13T13:18:41.753Z,99240.00
2019-03-13T13:21:09.874Z,99239.00
2019-03-13T13:23:38.170Z,99238.00
2019-03-13T13:26:06.462Z,99234.00
2019-03-13T13:28:34.944Z,99241.00
2019-03-13T13:31:03.422Z,99243.00
2019-03-13T13:33:32.137Z,99241.00
2019-03-13T13:36:00.944Z,99242.00
2019-03-13T13:38:29.669Z,99236.00
2019-03-13T13:40:57.985Z,99238.00
2019-03-13T13:43:26.375Z,99234.00
2019-03-13T13:46:06.464Z,99229.00
2019-03-13T13:48:35.397Z,99227.00
2019-03-13T13:51:04.126Z,99235.00
2019-03-13T13:53:32.813Z,99231.00
2019-03-13T13:56:02.019Z,99229.00
2019-03-13T13:58:30.239Z,99241.00
2019-03-13T14:00:58.563Z,99241.00
2019-03-13T14:03:27.223Z,99239.00
2019-03-13T14:05:55.972Z,99239.00
2019-03-13T14:08:24.621Z,99235.00
2019-03-13T14:10:53.047Z,99233.00
2019-03-13T14:13:21.335Z,99250.00
2019-03-13T14:15:49.698Z,99246.00
2019-03-13T14:18:18.156Z,99246.00
2019-03-13T14:20:46.912Z,99254.00
2019-03-13T14:23:16.144Z,99253.00
2019-03-13T14:25:44.511Z,99253.00
2019-03-13T14:28:13.158Z,99254.00
2019-03-13T14:30:41.954Z,99255.00
2019-03-13T14:33:10.524Z,99255.00
2019-03-13T14:35:38.953Z,99258.00
2019-03-13T14:38:07.574Z,99253.00
2019-03-13T14:40:36.301Z,99254.00
2019-03-13T14:43:05.248Z,99258.00
2019-03-13T14:45:33.699Z,99266.00
2019-03-13T14:48:02.032Z,99265.00
2019-03-13T14:50:30.489Z,99261.00
2019-03-13T14:52:59.421Z,99266.00
2019-03-13T14:55:27.812Z,99270.00
2019-03-13T14:57:56.563Z,99265.00
2019-03-13T15:00:25.507Z,99267.00
2019-03-13T15:02:53.677Z,99278.00
2019-03-13T15:05:22.274Z,99270.00
2019-03-13T15:07:50.618Z,99261.00
2019-03-13T15:10:19.699Z,99267.00
2019-03-13T15:12:48.305Z,99266.00
2019-03-13T15:15:16.703Z,99267.00
2019-03-13T15:17:45.052Z,99269.00
2019-03-13T15:20:14.763Z,99268.00
2019-03-13T15:22:43.369Z,99273.00
2019-03-13T15:25:12.220Z,99268.00
2019-03-13T15:27:40.740Z,99271.00
2019-03-13T15:30:16.798Z,99272.00
2019-03-13T15:32:45.081Z,99271.00
2019-03-13T15:35:13.789Z,99266.00
2019-03-13T15:37:42.309Z,99261.00
2019-03-13T15:40:13.579Z,99265.00
2019-03-13T15:42:42.423Z,99267.00
2019-03-13T15:45:13.911Z,99269.00
2019-03-13T15:47:42.250Z,99271.00
2019-03-13T15:50:11.996Z,99277.00
2019-03-13T15:52:40.596Z,99277.00
2019-03-13T15:55:10.632Z,99275.00
2019-03-13T15:57:39.134Z,99272.00
2019-03-13T16:00:18.484Z,99274.00
2019-03-13T16:02:46.970Z,99278.00
2019-03-13T16:05:15.430Z,99277.00
2019-03-13T16:07:44.378Z,99276.00
2019-03-13T16:10:13.289Z,99280.00
2019-03-13T16:12:41.981Z,99267.00
2019-03-13T16:15:16.198Z,99268.00
2019-03-13T16:17:44.648Z,99275.00
2019-03-13T16:20:13.689Z,99262.00
2019-03-13T16:22:44.241Z,99264.00
2019-03-13T16:25:12.901Z,99264.00
2019-03-13T16:27:41.180Z,99268.00
2019-03-13T16:30:14.402Z,99273.00
2019-03-13T16:32:44.249Z,99271.00
2019-03-13T16:35:13.043Z,99277.00
2019-03-13T16:37:41.498Z,99271.00
2019-03-13T16:40:12.155Z,99279.00
2019-03-13T16:42:40.667Z,99270.00
2019-03-13T16:45:10.399Z,99279.00
2019-03-13T16:47:38.976Z,99271.00
2019-03-13T16:50:10.720Z,99282.00
2019-03-13T16:52:39.122Z,99282.00
2019-03-13T16:55:10.443Z,99284.00
2019-03-13T16:57:38.896Z,99280.00
2019-03-13T17:00:12.298Z,99278.00
2019-03-13T17:02:40.627Z,99280.00
2019-03-13T17:05:10.819Z,99281.00
2019-03-13T17:07:39.223Z,99283.00
2019-03-13T17:10:09.949Z,99278.00
2019-03-13T17:12:38.350Z,99280.00
2019-03-13T17:15:10.469Z,99283.00
2019-03-13T17:17:38.935Z,99283.00
2019-03-13T17:20:11.765Z,99283.00
2019-03-13T17:22:43.222Z,99277.00
2019-03-13T17:25:12.729Z,99275.00
2019-03-13T17:27:41.368Z,99272.00
2019-03-13T17:30:14.019Z,99281.00
2019-03-13T17:32:42.367Z,99281.00
2019-03-13T17:35:11.012Z,99283.00
2019-03-13T17:37:39.436Z,99281.00
2019-03-13T17:40:11.216Z,99278.00
2019-03-13T17:42:39.660Z,99278.00
2019-03-13T17:45:11.258Z,99274.00
2019-03-13T17:47:40.232Z,99278.00
2019-03-13T17:50:11.374Z,99282.00
2019-03-13T17:52:39.882Z,99282.00
2019-03-13T17:55:09.116Z,99269.00
2019-03-13T17:57:37.589Z,99278.00
2019-03-13T18:00:10.730Z,99272.00
2019-03-13T18:02:39.833Z,99278.00
2019-03-13T18:05:08.596Z,99272.00
2019-03-13T18:07:37.254Z,99271.00
2019-03-13T18:10:08.340Z,99262.00
2019-03-13T18:12:36.728Z,99258.00
2019-03-13T18:15:05.969Z,99262.00
2019-03-13T18:17:34.707Z,99246.00
2019-03-13T18:20:03.703Z,99254.00
2019-03-13T18:22:32.137Z,99263.00
2019-03-13T18:25:01.254Z,99263.00
2019-03-13T18:27:29.745Z,99260.00
2019-03-13T18:29:58.204Z,99259.00
2019-03-13T18:32:26.864Z,99258.00
2019-03-13T18:34:55.200Z,99248.00
2019-03-13T18:37:23.947Z,99256.00
2019-03-13T18:39:52.273Z,99254.00
2019-03-13T18:42:20.673Z,99243.00
2019-03-13T18:44:48.967Z,99239.00
2019-03-13T18:47:17.491Z,99253.00
2019-03-13T18:49:45.833Z,99244.00
2019-03-13T18:52:14.311Z,99235.00
2019-03-13T18:54:42.933Z,99246.00
2019-03-13T18:57:11.609Z,99245.00
2019-03-13T18:59:40.070Z,99240.00
2019-03-13T19:02:08.952Z,99239.00
2019-03-13T19:04:37.366Z,99237.00
2019-03-13T19:07:05.798Z,99239.00
2019-03-13T19:09:34.404Z,99232.00
2019-03-13T19:12:04.697Z,99236.00
2019-03-13T19:14:33.908Z,99237.00
2019-03-13T19:17:02.614Z,99237.00
2019-03-13T19:19:31.038Z,99235.00
2019-03-13T19:21:59.625Z,99222.00
2019-03-13T19:24:31.447Z,99225.00
2019-03-13T19:26:58.555Z,99232.00
2019-03-13T19:29:27.292Z,99235.00
2019-03-13T19:31:55.628Z,99226.00
2019-03-13T19:34:24.047Z,99230.00
2019-03-13T19:36:52.996Z,99226.00
2019-03-13T19:39:22.760Z,99219.00
2019-03-13T19:41:51.241Z,99215.00
2019-03-13T19:44:19.691Z,99219.00
2019-03-13T19:46:48.060Z,99226.00
2019-03-13T19:49:16.621Z,99217.00
2019-03-13T19:51:45.120Z,99213.00
2019-03-13T19:54:13.599Z,99219.00
2019-03-13T19:56:42.184Z,99218.00
2019-03-13T19:59:10.598Z,99213.00
2019-03-13T20:01:38.944Z,99209.00
2019-03-13T20:04:07.456Z,99197.00
2019-03-13T20:06:42.105Z,99200.00
2019-03-13T20:09:06.877Z,99191.00
2019-03-13T20:11:35.245Z,99197.00
2019-03-13T20:14:04.055Z,99200.00
2019-03-13T20:16:32.520Z,99190.00
2019-03-13T20:19:01.120Z,99191.00
2019-03-13T20:21:31.198Z,99188.00
2019-03-13T20:23:59.601Z,99175.00
2019-03-13T20:26:28.020Z,99178.00
2019-03-13T20:28:56.327Z,99174.00
2019-03-13T20:31:25.224Z,99173.00
2019-03-13T20:33:53.499Z,99162.00
2019-03-13T20:36:21.813Z,99159.00
2019-03-13T20:38:50.571Z,99174.00
2019-03-13T20:41:18.993Z,99164.00
2019-03-13T20:43:47.835Z,99154.00
2019-03-13T20:46:16.830Z,99163.00
2019-03-13T20:48:45.531Z,99155.00
2019-03-13T20:51:14.334Z,99148.00
2019-03-13T20:53:42.749Z,99147.00
2019-03-13T20:56:11.257Z,99157.00
2019-03-13T20:58:39.646Z,99151.00
2019-03-13T21:01:09.488Z,99154.00
2019-03-13T21:03:38.040Z,99149.00
2019-03-13T21:06:06.374Z,99150.00
2019-03-13T21:08:34.864Z,99153.00
2019-03-13T21:11:03.100Z,99144.00
2019-03-13T21:13:31.752Z,99146.00
2019-03-13T21:16:00.200Z,99145.00
2019-03-13T21:18:28.512Z,99130.00
2019-03-13T21:20:56.965Z,99136.00
2019-03-13T21:23:25.276Z,99123.00
2019-03-13T21:25:54.064Z,99131.00
2019-03-13T21:28:22.324Z,99120.00
2019-03-13T21:30:51.372Z,99133.00
2019-03-13T21:33:19.783Z,99124.00
2019-03-13T21:35:48.516Z,99127.00
2019-03-13T21:38:16.842Z,99117.00
2019-03-13T21:40:45.463Z,99114.00
2019-03-13T21:43:16.302Z,99113.00
2019-03-13T21:45:44.191Z,99115.00
2019-03-13T21:48:13.134Z,99110.00
2019-03-13T21:50:41.557Z,99119.00
2019-03-13T21:53:10.525Z,99106.00
2019-03-13T21:55:39.182Z,99107.00
2019-03-13T21:58:07.879Z,99113.00
2019-03-13T22:00:36.336Z,99102.00
2019-03-13T22:03:04.917Z,99121.00
2019-03-13T22:05:33.617Z,99115.00
2019-03-13T22:08:02.127Z,99116.00
2019-03-13T22:10:30.608Z,99109.00
2019-03-13T22:12:58.990Z,99104.00
2019-03-13T22:15:27.742Z,99094.00
2019-03-13T22:17:56.246Z,99102.00
2019-03-13T22:20:24.509Z,99106.00
2019-03-13T22:22:53.168Z,99106.00
2019-03-13T22:25:21.763Z,99093.00
2019-03-13T22:27:50.541Z,99102.00
2019-03-13T22:30:19.904Z,99090.00
2019-03-13T22:32:48.826Z,99089.00
2019-03-13T22:35:17.448Z,99087.00
2019-03-13T22:37:45.995Z,99090.00
2019-03-13T22:40:15.188Z,99092.00
2019-03-13T22:42:44.029Z,99090.00
2019-03-13T22:45:12.723Z,99088.00
2019-03-13T22:47:42.839Z,99090.00
2019-03-13T22:50:14.420Z,99077.00
2019-03-13T22:52:43.280Z,99068.00
2019-03-13T22:55:11.865Z,99077.00
2019-03-13T22:57:40.340Z,99066.00
2019-03-13T23:00:46.717Z,99077.00
2019-03-13T23:03:15.924Z,99068.00
2019-03-13T23:05:44.532Z,99077.00
2019-03-13T23:08:13.240Z,99065.00
2019-03-13T23:10:41.601Z,99052.00
2019-03-13T23:13:10.249Z,99066.00
2019-03-13T23:15:38.687Z,99063.00
2019-03-13T23:18:06.856Z,99057.00
2019-03-13T23:20:35.746Z,99049.00
2019-03-13T23:23:03.983Z,99053.00
2019-03-13T23:25:32.737Z,99049.00
2019-03-13T23:28:01.163Z,99050.00
2019-03-13T23:30:29.406Z,99048.00
2019-03-13T23:32:58.200Z,99052.00
2019-03-13T23:35:26.863Z,99058.00
2019-03-13T23:37:55.268Z,99060.00
2019-03-13T23:40:23.554Z,99042.00
2019-03-13T23:42:52.068Z,99040.00
2019-03-13T23:45:20.400Z,99041.00
2019-03-13T23:47:48.888Z,99040.00
2019-03-13T23:50:17.232Z,99053.00
2019-03-13T23:52:46.013Z,99036.00
2019-03-13T23:55:14.517Z,99037.00
2019-03-13T23:57:42.907Z,99038.00
